Airfield :







YOU CAN JOIN US ON...

 
LOGIN :

Register | Disclaimer

   EN    FR    IT 

 









Legend :    VFR   Marginal VFR   IFR   Intensive IFR   Very Intensive IFR
Visi :
Ceiling :
>= 8 km
>= 3000ft
5 to 8 km
1000 to 3000 ft
1500m to 5 km
500 to 1000 ft
800 to 1500m
200 to 500 ft
< 800m
< 200 ft
Symbols :   Thunderstorms  Fog  Heavy snow  Heavy precipitations  Wind > 20 kt






- Airport Elevation : 21 ft
- IATA code : YVM


CYVM - Qikiqtarjuac

CURRENT METAR :
  • 231800Z 19005KT 15SM FEW100 SCT180 OVC250 M01/M03 A3014 RMK AC1AS4CS3 AC TR SLP208

EXPIRED METARs :
  • 231700Z 14003KT 130V210 15SM FEW100 SCT170 OVC250 M01/M04 A3015 RMK AC1AS3CS4 AC TR HALO SLP213
  • 231600Z 19003KT 120V220 15SM FEW090 SCT180 BKN250 M01/M04 A3017 RMK AC1AS3CS4 AC TR PRESFR SLP219

TAF TAF CYVM
Valid from the 23 at 13:00 until the 24 at 01:00 UTC


231238Z 2313/2401 20010KT P6SM SCT080 BKN210 RMK FCST BASED ON AUTO OBS. NXT FCST BY 231900Z



MET'MAP, your aeronautical weather chart ! - Copyright ORBIFLY December 2007 - Disclaimer

ORBIFLY MET'MAP TEAM :

Programming & Development : Alexandra Zaïnal
Concept & Development : Baudouin d'Aumeries
Co-Development & Prog : Marc-Olivier Méhu
Technical & hardware support : Manuel Goepfert

Contact : metmap@orbifly.com




SOURCES & CREDITS :

   NOAA